Time;durP1;ratioP1;P1;durP2;ratioP2;P2;SDS_P1;SDS_P2;PMS_P1;PMS_P2;Temp;Humidity;BMP_temperature;BMP_pressure;BME280_temperature;BME280_humidity;BME280_pressure;Samples;Min_cycle;Max_cycle;Signal;HPM_P1;HPM_P2
2022/01/16 00:01:15;;;;;;;34.50;13.75;;;;;;;;;;5011489;28;20383;-72
2022/01/16 00:06:22;;;;;;;39.63;16.08;;;;;;;;;;5010302;28;20458;-72
2022/01/16 00:08:47;;;;;;;36.08;14.15;;;;;;;;;;5010957;28;20448;-72
2022/01/16 00:11:13;;;;;;;35.22;14.50;;;;;;;;;;5010227;28;20343;-72
2022/01/16 00:13:38;;;;;;;43.08;15.32;;;;;;;;;;4992317;28;20419;-72
2022/01/16 00:16:04;;;;;;;32.88;14.02;;;;;;;;;;4992105;28;20166;-73
2022/01/16 00:18:40;;;;;;;37.67;15.90;;;;;;;;;;5009908;28;20524;-73
2022/01/16 00:21:06;;;;;;;34.15;14.60;;;;;;;;;;4993584;28;20347;-73
2022/01/16 00:23:31;;;;;;;34.40;14.63;;;;;;;;;;5009787;28;20348;-72
2022/01/16 00:25:57;;;;;;;36.28;15.57;;;;;;;;;;5009623;28;20443;-73
2022/01/16 00:28:23;;;;;;;31.00;13.38;;;;;;;;;;5010066;28;20095;-72
2022/01/16 00:30:50;;;;;;;39.60;15.73;;;;;;;;;;4991795;28;20454;-72
2022/01/16 00:33:16;;;;;;;35.40;14.77;;;;;;;;;;4991239;28;20387;-72
2022/01/16 00:35:41;;;;;;;34.15;14.25;;;;;;;;;;4991269;28;20166;-72
2022/01/16 00:38:07;;;;;;;35.55;14.40;;;;;;;;;;5009208;28;20318;-72
2022/01/16 00:40:33;;;;;;;39.20;15.45;;;;;;;;;;4991485;28;20100;-73
2022/01/16 00:42:58;;;;;;;35.38;14.00;;;;;;;;;;4991433;28;20569;-72
2022/01/16 00:45:24;;;;;;;36.50;14.50;;;;;;;;;;5008909;28;20079;-72
2022/01/16 00:47:49;;;;;;;43.75;16.67;;;;;;;;;;4992102;28;20082;-72
2022/01/16 00:50:15;;;;;;;39.95;15.85;;;;;;;;;;4991409;28;20439;-72
2022/01/16 00:52:40;;;;;;;38.45;15.48;;;;;;;;;;4991460;28;20046;-72
2022/01/16 00:55:06;;;;;;;33.22;13.63;;;;;;;;;;4991373;28;20437;-73
2022/01/16 00:57:32;;;;;;;37.92;14.40;;;;;;;;;;4991957;28;20353;-72
2022/01/16 00:59:57;;;;;;;38.50;13.65;;;;;;;;;;5007578;28;20390;-73
2022/01/16 01:02:23;;;;;;;34.08;13.88;;;;;;;;;;5002028;28;20356;-72
2022/01/16 01:04:49;;;;;;;34.38;13.13;;;;;;;;;;4971384;28;20367;-73
2022/01/16 01:07:15;;;;;;;35.80;14.30;;;;;;;;;;4971388;28;20416;-73
2022/01/16 01:09:40;;;;;;;33.33;14.05;;;;;;;;;;4988976;28;20459;-72
2022/01/16 01:12:06;;;;;;;31.65;14.68;;;;;;;;;;4990931;28;20436;-72
2022/01/16 01:14:42;;;;;;;37.80;14.38;;;;;;;;;;4988844;28;20051;-72
2022/01/16 01:17:10;;;;;;;34.10;13.40;;;;;;;;;;4972289;28;20468;-72
2022/01/16 01:19:35;;;;;;;35.35;15.25;;;;;;;;;;4989003;28;20183;-73
2022/01/16 01:22:05;;;;;;;33.00;14.30;;;;;;;;;;4971073;28;20029;-72
2022/01/16 01:24:30;;;;;;;;;;;;;;;;;;4991043;28;20047;-73
2022/01/16 01:27:09;;;;;;;34.67;13.40;;;;;;;;;;4971073;28;19912;-74
2022/01/16 01:29:35;;;;;;;36.50;14.43;;;;;;;;;;4973227;28;20482;-73
2022/01/16 01:32:01;;;;;;;34.88;14.43;;;;;;;;;;4988864;28;20033;-72
2022/01/16 01:34:27;;;;;;;34.33;12.60;;;;;;;;;;4988943;28;20021;-73
2022/01/16 01:36:53;;;;;;;32.72;12.60;;;;;;;;;;4971245;28;20320;-73
2022/01/16 01:39:20;;;;;;;36.42;14.07;;;;;;;;;;4989418;28;20498;-72
2022/01/16 01:41:47;;;;;;;32.58;12.35;;;;;;;;;;4971157;28;20094;-72
2022/01/16 01:52:24;;;;;;;30.75;13.43;;;;;;;;;;4968867;28;20060;-72
2022/01/16 01:54:51;;;;;;;35.92;14.38;;;;;;;;;;4967301;28;20029;-73
2022/01/16 01:57:17;;;;;;;32.63;14.20;;;;;;;;;;4967754;28;20409;-72
2022/01/16 01:59:42;;;;;;;28.95;12.18;;;;;;;;;;4967625;28;20422;-72
2022/01/16 02:02:07;;;;;;;28.70;13.30;;;;;;;;;;4967598;28;20348;-72
2022/01/16 02:04:33;;;;;;;30.15;12.15;;;;;;;;;;4970404;28;20411;-73
2022/01/16 02:06:59;;;;;;;28.30;12.82;;;;;;;;;;4967856;28;20037;-73
2022/01/16 02:09:24;;;;;;;35.92;13.32;;;;;;;;;;4968525;28;20112;-72
2022/01/16 02:11:51;;;;;;;34.55;12.98;;;;;;;;;;4969047;28;20333;-72
2022/01/16 02:14:31;;;;;;;29.10;12.30;;;;;;;;;;4968374;28;20033;-73
2022/01/16 02:28:19;;;;;;;27.38;12.43;;;;;;;;;;4972158;28;20360;-73
2022/01/16 02:35:57;;;;;;;30.05;12.73;;;;;;;;;;4972258;28;20100;-72
2022/01/16 02:38:22;;;;;;;25.90;12.23;;;;;;;;;;4970859;28;20038;-73
2022/01/16 02:40:54;;;;;;;29.75;12.82;;;;;;;;;;4972027;28;20396;-73
2022/01/16 02:43:28;;;;;;;31.95;11.98;;;;;;;;;;4970953;28;20126;-73
2022/01/16 02:46:09;;;;;;;29.30;13.18;;;;;;;;;;4984884;28;20535;-73
2022/01/16 02:48:34;;;;;;;30.65;13.32;;;;;;;;;;4991958;28;20432;-72
2022/01/16 02:50:59;;;;;;;29.60;11.68;;;;;;;;;;4991698;28;20455;-73
2022/01/16 02:53:25;;;;;;;31.42;12.27;;;;;;;;;;4993701;28;20384;-73
2022/01/16 02:55:51;;;;;;;33.05;12.55;;;;;;;;;;4991522;28;20439;-73
2022/01/16 02:58:16;;;;;;;32.35;13.68;;;;;;;;;;4992999;28;20029;-72
2022/01/16 03:00:41;;;;;;;28.83;12.45;;;;;;;;;;4991848;28;20044;-73
2022/01/16 03:03:07;;;;;;;30.50;12.23;;;;;;;;;;4991784;28;20510;-72
2022/01/16 03:05:33;;;;;;;29.73;11.88;;;;;;;;;;4991808;28;20439;-73
2022/01/16 03:07:59;;;;;;;28.75;11.70;;;;;;;;;;4991994;28;20029;-73
2022/01/16 03:12:51;;;;;;;27.83;11.68;;;;;;;;;;4973676;28;20428;-72
2022/01/16 03:15:18;;;;;;;29.05;12.48;;;;;;;;;;4991157;28;20435;-73
2022/01/16 03:23:01;;;;;;;26.65;11.98;;;;;;;;;;4991780;28;20348;-73
2022/01/16 03:25:27;;;;;;;28.40;11.48;;;;;;;;;;4992206;28;20351;-72
2022/01/16 03:27:52;;;;;;;28.10;11.38;;;;;;;;;;4974153;28;20457;-72
2022/01/16 03:30:17;;;;;;;29.85;10.77;;;;;;;;;;4991881;28;20495;-72
2022/01/16 03:32:43;;;;;;;28.55;11.38;;;;;;;;;;4974180;28;20431;-73
2022/01/16 03:35:08;;;;;;;29.95;11.70;;;;;;;;;;4991658;28;20468;-74
2022/01/16 03:37:34;;;;;;;32.85;12.18;;;;;;;;;;4990928;28;20386;-72
2022/01/16 03:39:59;;;;;;;25.45;11.50;;;;;;;;;;4972731;28;20301;-73
2022/01/16 03:42:29;;;;;;;29.92;11.75;;;;;;;;;;4990979;28;20123;-73
2022/01/16 03:44:54;;;;;;;34.80;12.27;;;;;;;;;;4969257;28;20473;-72
2022/01/16 03:47:19;;;;;;;26.02;11.95;;;;;;;;;;4969899;28;20302;-73
2022/01/16 03:49:44;;;;;;;35.40;13.10;;;;;;;;;;4971469;28;20399;-72
2022/01/16 03:52:10;;;;;;;28.48;11.98;;;;;;;;;;4970703;28;20080;-73
2022/01/16 03:54:35;;;;;;;23.52;10.50;;;;;;;;;;4971372;28;20408;-73
2022/01/16 03:57:00;;;;;;;24.30;10.90;;;;;;;;;;4970344;28;20446;-72
2022/01/16 03:59:26;;;;;;;26.67;11.10;;;;;;;;;;4971250;28;20434;-72
2022/01/16 04:01:52;;;;;;;25.88;10.13;;;;;;;;;;4970866;28;20423;-72
2022/01/16 04:04:17;;;;;;;24.30;11.57;;;;;;;;;;4972156;28;20456;-72
2022/01/16 04:06:43;;;;;;;24.02;10.20;;;;;;;;;;4969624;28;20030;-73
2022/01/16 04:09:08;;;;;;;27.50;12.25;;;;;;;;;;4969498;28;20441;-73
2022/01/16 04:11:34;;;;;;;26.10;10.23;;;;;;;;;;4968815;28;20432;-72
2022/01/16 04:14:14;;;;;;;25.20;10.82;;;;;;;;;;4970392;28;20348;-73
2022/01/16 04:16:40;;;;;;;26.83;10.27;;;;;;;;;;4970763;28;20375;-73
2022/01/16 04:19:05;;;;;;;27.00;11.65;;;;;;;;;;4970560;28;20026;-73
2022/01/16 04:21:30;;;;;;;26.98;10.32;;;;;;;;;;4970379;28;20342;-73
2022/01/16 04:23:57;;;;;;;21.67;10.63;;;;;;;;;;4970373;28;20631;-73
2022/01/16 04:26:25;;;;;;;32.38;11.20;;;;;;;;;;4968690;28;20475;-73
2022/01/16 04:28:52;;;;;;;29.85;11.82;;;;;;;;;;4970363;28;20420;-72
2022/01/16 04:31:17;;;;;;;27.45;10.30;;;;;;;;;;4969617;28;20353;-72
2022/01/16 04:33:43;;;;;;;25.48;10.70;;;;;;;;;;4970367;28;20364;-73
2022/01/16 04:36:09;;;;;;;26.85;10.00;;;;;;;;;;4968904;28;20344;-72
2022/01/16 04:38:36;;;;;;;26.73;10.82;;;;;;;;;;4969771;28;20336;-72
2022/01/16 04:43:47;;;;;;;22.73;9.88;;;;;;;;;;4969924;28;20052;-73
2022/01/16 04:46:13;;;;;;;23.67;11.13;;;;;;;;;;4967967;28;20469;-73
2022/01/16 04:48:39;;;;;;;26.05;10.50;;;;;;;;;;4968786;28;20330;-73
2022/01/16 04:51:04;;;;;;;25.40;10.07;;;;;;;;;;4968961;28;20348;-72
2022/01/16 04:53:29;;;;;;;22.83;10.10;;;;;;;;;;4969856;28;20352;-73
2022/01/16 04:55:55;;;;;;;27.63;11.00;;;;;;;;;;4968760;28;20391;-72
2022/01/16 04:58:21;;;;;;;26.05;10.52;;;;;;;;;;4969766;28;20429;-73
2022/01/16 05:00:47;;;;;;;23.00;10.30;;;;;;;;;;4969863;28;20348;-72
2022/01/16 05:03:12;;;;;;;26.55;9.88;;;;;;;;;;4969866;28;20065;-73
2022/01/16 05:05:37;;;;;;;27.90;10.68;;;;;;;;;;4969707;28;20433;-73
2022/01/16 05:08:03;;;;;;;22.70;9.43;;;;;;;;;;4968291;28;20395;-73
2022/01/16 05:10:28;;;;;;;23.83;10.48;;;;;;;;;;4970004;28;20302;-73
2022/01/16 05:12:55;;;;;;;22.90;10.13;;;;;;;;;;4969556;28;20029;-72
2022/01/16 05:18:04;;;;;;;30.45;10.27;;;;;;;;;;4970634;28;20355;-72
2022/01/16 05:20:30;;;;;;;21.05;9.07;;;;;;;;;;4967865;28;20372;-73
2022/01/16 05:22:55;;;;;;;20.75;9.30;;;;;;;;;;4969348;28;20433;-73
2022/01/16 05:25:20;;;;;;;23.52;10.15;;;;;;;;;;4967936;28;20056;-72
2022/01/16 05:27:46;;;;;;;20.27;10.15;;;;;;;;;;4967917;28;20482;-73
2022/01/16 05:30:12;;;;;;;26.13;10.02;;;;;;;;;;4970556;28;20340;-74
2022/01/16 05:32:37;;;;;;;19.90;8.60;;;;;;;;;;4968807;28;20320;-73
2022/01/16 05:35:03;;;;;;;20.17;8.93;;;;;;;;;;4969919;28;20030;-73
2022/01/16 05:37:28;;;;;;;20.38;9.05;;;;;;;;;;4967861;28;20337;-73
2022/01/16 05:39:55;;;;;;;23.35;9.20;;;;;;;;;;4969143;28;20096;-73
2022/01/16 05:42:20;;;;;;;20.48;9.48;;;;;;;;;;4969466;28;20025;-72
2022/01/16 05:44:45;;;;;;;20.15;9.27;;;;;;;;;;4971117;28;20462;-72
2022/01/16 05:47:12;;;;;;;20.35;9.48;;;;;;;;;;4989216;28;20383;-73
2022/01/16 05:49:39;;;;;;;23.80;10.02;;;;;;;;;;4971366;28;20355;-72
2022/01/16 05:52:05;;;;;;;21.75;9.73;;;;;;;;;;4988481;28;20478;-72
2022/01/16 05:54:31;;;;;;;21.45;9.85;;;;;;;;;;4970659;28;20314;-73
2022/01/16 05:56:56;;;;;;;23.77;8.77;;;;;;;;;;4988631;28;20372;-72
2022/01/16 05:59:21;;;;;;;18.05;9.35;;;;;;;;;;4989728;28;20499;-73
2022/01/16 06:01:47;;;;;;;18.98;8.88;;;;;;;;;;4973080;28;20544;-72
2022/01/16 06:04:12;;;;;;;25.23;9.40;;;;;;;;;;4993749;28;20505;-72
2022/01/16 06:06:37;;;;;;;25.75;10.55;;;;;;;;;;4992711;28;20450;-72
2022/01/16 06:09:03;;;;;;;18.05;7.28;;;;;;;;;;4974676;28;20452;-73
2022/01/16 06:11:28;;;;;;;18.45;8.57;;;;;;;;;;4992509;28;20482;-72
2022/01/16 06:13:53;;;;;;;18.33;9.38;;;;;;;;;;4993133;28;20418;-72
2022/01/16 06:16:18;;;;;;;18.55;8.48;;;;;;;;;;4992618;28;20401;-73
2022/01/16 06:18:44;;;;;;;20.00;9.30;;;;;;;;;;4992478;28;20043;-72
2022/01/16 06:21:09;;;;;;;18.70;8.88;;;;;;;;;;4974411;28;20379;-74
2022/01/16 06:23:34;;;;;;;24.48;10.50;;;;;;;;;;4992653;28;20331;-72
2022/01/16 06:26:00;;;;;;;19.25;9.45;;;;;;;;;;4992392;28;20432;-73
2022/01/16 06:28:27;;;;;;;26.20;10.00;;;;;;;;;;4992251;28;20475;-72
2022/01/16 06:30:53;;;;;;;20.85;8.65;;;;;;;;;;4992246;28;20491;-73
2022/01/16 06:33:18;;;;;;;18.75;7.85;;;;;;;;;;4993193;28;20501;-73
2022/01/16 06:35:43;;;;;;;21.63;9.32;;;;;;;;;;4992178;28;20462;-72
2022/01/16 06:38:09;;;;;;;20.25;9.95;;;;;;;;;;4993679;28;20359;-72
2022/01/16 06:40:34;;;;;;;25.27;10.18;;;;;;;;;;4991876;28;20448;-74
2022/01/16 06:42:59;;;;;;;21.65;8.73;;;;;;;;;;4974656;28;20452;-72
2022/01/16 06:45:25;;;;;;;21.98;8.32;;;;;;;;;;4991259;28;20422;-72
2022/01/16 06:47:51;;;;;;;23.20;10.27;;;;;;;;;;4992279;28;20076;-73
2022/01/16 06:50:17;;;;;;;21.30;9.52;;;;;;;;;;4991777;28;20029;-72
2022/01/16 06:52:42;;;;;;;20.13;9.70;;;;;;;;;;4991708;28;20417;-73
2022/01/16 06:55:08;;;;;;;20.08;8.98;;;;;;;;;;4974412;28;20033;-73
2022/01/16 06:57:33;;;;;;;24.17;9.57;;;;;;;;;;4991832;28;20515;-72
2022/01/16 06:59:58;;;;;;;22.05;9.60;;;;;;;;;;4973996;28;20052;-73
2022/01/16 07:02:24;;;;;;;21.90;10.65;;;;;;;;;;4991521;28;20379;-73
2022/01/16 07:04:49;;;;;;;28.90;11.07;;;;;;;;;;4973796;28;20462;-73
2022/01/16 07:07:14;;;;;;;22.67;10.93;;;;;;;;;;4973803;28;20408;-72
2022/01/16 07:09:41;;;;;;;31.33;11.15;;;;;;;;;;4973650;28;20493;-73
2022/01/16 07:12:07;;;;;;;23.70;9.50;;;;;;;;;;4973908;28;20024;-73
2022/01/16 07:14:32;;;;;;;25.35;10.23;;;;;;;;;;4990561;28;20033;-73
2022/01/16 07:16:57;;;;;;;20.98;9.65;;;;;;;;;;4973970;28;20400;-72
2022/01/16 07:19:23;;;;;;;27.75;11.88;;;;;;;;;;4957230;28;20380;-72
2022/01/16 07:21:48;;;;;;;22.35;9.88;;;;;;;;;;4991306;28;20460;-72
2022/01/16 07:24:15;;;;;;;28.38;11.18;;;;;;;;;;4973288;28;20387;-73
2022/01/16 07:26:42;;;;;;;20.63;9.77;;;;;;;;;;4973628;28;20481;-72
2022/01/16 07:29:08;;;;;;;30.63;9.88;;;;;;;;;;4973194;28;20345;-72
2022/01/16 07:31:33;;;;;;;27.05;11.32;;;;;;;;;;4990765;28;20120;-73
2022/01/16 07:33:59;;;;;;;25.50;10.98;;;;;;;;;;4991161;28;20055;-72
2022/01/16 07:36:24;;;;;;;24.05;10.25;;;;;;;;;;4991000;28;20529;-72
2022/01/16 07:38:50;;;;;;;25.92;10.50;;;;;;;;;;4991487;28;20041;-72
2022/01/16 07:41:15;;;;;;;21.20;9.57;;;;;;;;;;4992384;28;20307;-73
2022/01/16 07:43:40;;;;;;;20.52;9.98;;;;;;;;;;4973337;28;20478;-72
2022/01/16 07:46:06;;;;;;;26.02;10.40;;;;;;;;;;4990028;28;20413;-72
2022/01/16 07:48:31;;;;;;;26.42;11.52;;;;;;;;;;4991728;28;20340;-72
2022/01/16 07:50:56;;;;;;;29.70;12.80;;;;;;;;;;4992406;28;20391;-74
2022/01/16 07:53:22;;;;;;;27.48;11.95;;;;;;;;;;4972701;28;20360;-72
2022/01/16 07:55:47;;;;;;;29.55;11.95;;;;;;;;;;4972602;28;20436;-73
2022/01/16 07:58:12;;;;;;;29.55;13.20;;;;;;;;;;4972527;28;20225;-72
2022/01/16 08:00:39;;;;;;;28.33;12.70;;;;;;;;;;4990645;28;20051;-72
2022/01/16 08:03:04;;;;;;;26.77;10.38;;;;;;;;;;4991888;28;20519;-73
2022/01/16 08:05:30;;;;;;;24.75;10.57;;;;;;;;;;4972465;28;20427;-73
2022/01/16 08:07:56;;;;;;;25.55;11.82;;;;;;;;;;4972630;28;20156;-72
2022/01/16 08:10:21;;;;;;;23.83;10.82;;;;;;;;;;4991843;28;20117;-72
2022/01/16 08:12:46;;;;;;;26.42;11.25;;;;;;;;;;4972397;28;20440;-73
2022/01/16 08:15:12;;;;;;;22.35;10.10;;;;;;;;;;4990574;28;20344;-72
2022/01/16 08:17:37;;;;;;;28.15;10.88;;;;;;;;;;4972622;28;20411;-72
2022/01/16 08:20:04;;;;;;;21.58;10.90;;;;;;;;;;4990780;28;20029;-73
2022/01/16 08:22:30;;;;;;;26.23;10.88;;;;;;;;;;4972255;28;20044;-73
2022/01/16 08:24:55;;;;;;;24.30;10.93;;;;;;;;;;4989475;28;20444;-73
2022/01/16 08:27:21;;;;;;;24.88;10.70;;;;;;;;;;4972164;28;20435;-73
2022/01/16 08:29:46;;;;;;;28.13;11.93;;;;;;;;;;4990071;28;20080;-73
2022/01/16 08:32:11;;;;;;;34.42;12.40;;;;;;;;;;4972429;28;20321;-74
2022/01/16 08:34:36;;;;;;;29.20;12.52;;;;;;;;;;4989925;28;20447;-73
2022/01/16 08:37:02;;;;;;;31.90;12.57;;;;;;;;;;4990167;28;20394;-73
2022/01/16 08:39:28;;;;;;;33.33;13.55;;;;;;;;;;4971751;28;20494;-73
2022/01/16 08:41:53;;;;;;;34.22;13.63;;;;;;;;;;4972103;28;20483;-73
2022/01/16 08:44:19;;;;;;;29.20;12.32;;;;;;;;;;4989989;28;20025;-73
2022/01/16 08:46:45;;;;;;;27.17;12.60;;;;;;;;;;4989480;28;20056;-72
2022/01/16 08:49:10;;;;;;;33.33;12.82;;;;;;;;;;4972201;28;20462;-74
2022/01/16 08:51:36;;;;;;;31.45;12.50;;;;;;;;;;4989762;28;20048;-73
2022/01/16 08:54:01;;;;;;;29.25;11.63;;;;;;;;;;4989286;28;20440;-73
2022/01/16 08:56:27;;;;;;;27.05;12.73;;;;;;;;;;4955364;28;20403;-73
2022/01/16 08:58:52;;;;;;;31.52;11.50;;;;;;;;;;4991073;28;20305;-73
2022/01/16 09:01:17;;;;;;;29.80;13.40;;;;;;;;;;4971611;28;20359;-73
2022/01/16 09:03:42;;;;;;;28.55;12.68;;;;;;;;;;4972021;28;20429;-73
2022/01/16 09:06:08;;;;;;;27.33;12.05;;;;;;;;;;4971276;28;20461;-73
2022/01/16 09:08:33;;;;;;;26.80;12.20;;;;;;;;;;4989555;28;20459;-73
2022/01/16 09:10:58;;;;;;;27.35;11.48;;;;;;;;;;4989772;28;20491;-74
2022/01/16 09:13:24;;;;;;;26.25;11.65;;;;;;;;;;4971193;28;20047;-74
2022/01/16 09:15:50;;;;;;;26.90;11.70;;;;;;;;;;4989164;28;20448;-73
2022/01/16 09:18:17;;;;;;;24.33;10.82;;;;;;;;;;4989213;28;20424;-73
2022/01/16 09:20:43;;;;;;;30.88;11.77;;;;;;;;;;4970763;28;20441;-74
2022/01/16 09:23:09;;;;;;;24.40;12.55;;;;;;;;;;4990342;28;20033;-74
2022/01/16 09:25:34;;;;;;;29.83;12.63;;;;;;;;;;4971932;28;20348;-72
2022/01/16 09:28:00;;;;;;;28.02;10.98;;;;;;;;;;4971331;28;20345;-76
2022/01/16 09:30:27;;;;;;;27.98;11.68;;;;;;;;;;4971167;28;20033;-73
2022/01/16 09:32:52;;;;;;;32.28;12.35;;;;;;;;;;4971241;28;20416;-73
2022/01/16 09:35:17;;;;;;;25.23;10.88;;;;;;;;;;4904202;28;20448;-73
2022/01/16 09:37:43;;;;;;;22.85;10.32;;;;;;;;;;4960896;28;20061;-73
2022/01/16 09:40:11;;;;;;;25.27;11.65;;;;;;;;;;4964535;28;20092;-73
2022/01/16 09:42:36;;;;;;;27.52;11.80;;;;;;;;;;4926739;28;20459;-73
2022/01/16 09:45:04;;;;;;;27.25;11.20;;;;;;;;;;4953771;28;20351;-73
2022/01/16 09:47:33;;;;;;;33.90;12.32;;;;;;;;;;4949758;28;20076;-73
2022/01/16 09:49:58;;;;;;;24.15;11.05;;;;;;;;;;4964981;28;20026;-74
2022/01/16 09:52:23;;;;;;;26.70;11.65;;;;;;;;;;4950739;28;20025;-73
2022/01/16 09:54:50;;;;;;;27.25;10.48;;;;;;;;;;4950075;28;20421;-74
2022/01/16 09:57:15;;;;;;;26.70;11.55;;;;;;;;;;4949381;28;20448;-73
2022/01/16 09:59:40;;;;;;;26.67;11.38;;;;;;;;;;4949905;28;20429;-73
2022/01/16 10:02:06;;;;;;;26.23;11.85;;;;;;;;;;4949949;28;20354;-73
2022/01/16 10:04:35;;;;;;;30.38;12.88;;;;;;;;;;4950107;28;20325;-74
2022/01/16 10:07:07;;;;;;;22.05;11.07;;;;;;;;;;4949703;28;20514;-73
2022/01/16 10:09:37;;;;;;;24.17;11.45;;;;;;;;;;4951377;28;20349;-76
2022/01/16 10:12:13;;;;;;;25.38;11.10;;;;;;;;;;4964131;28;20523;-73
2022/01/16 10:14:46;;;;;;;26.30;11.30;;;;;;;;;;4949414;28;20388;-73
2022/01/16 10:17:16;;;;;;;26.42;11.07;;;;;;;;;;4949460;28;20334;-73
2022/01/16 10:19:42;;;;;;;30.20;10.50;;;;;;;;;;4949463;28;20352;-72
2022/01/16 10:22:09;;;;;;;25.60;12.50;;;;;;;;;;4949695;28;20373;-73
2022/01/16 10:24:35;;;;;;;20.25;9.90;;;;;;;;;;4950903;28;20399;-73
2022/01/16 10:27:07;;;;;;;24.52;11.77;;;;;;;;;;4949223;28;20437;-73
2022/01/16 10:29:45;;;;;;;24.63;10.07;;;;;;;;;;4964856;28;20034;-72
2022/01/16 10:32:13;;;;;;;22.67;10.00;;;;;;;;;;4948476;28;20022;-73
2022/01/16 10:34:40;;;;;;;26.25;11.52;;;;;;;;;;4951683;28;20021;-73
2022/01/16 10:37:29;;;;;;;26.52;11.13;;;;;;;;;;4948922;28;20034;-73
2022/01/16 10:40:09;;;;;;;23.20;10.48;;;;;;;;;;4948984;28;20445;-73
2022/01/16 10:42:34;;;;;;;27.95;11.27;;;;;;;;;;4964833;28;20360;-73
2022/01/16 10:45:10;;;;;;;26.77;11.77;;;;;;;;;;4948330;28;20412;-73
2022/01/16 10:47:44;;;;;;;25.27;10.63;;;;;;;;;;4949257;28;20045;-73
2022/01/16 10:50:14;;;;;;;21.70;9.85;;;;;;;;;;4952752;28;20441;-73
2022/01/16 10:52:49;;;;;;;23.35;10.75;;;;;;;;;;4967697;28;20326;-73
2022/01/16 10:55:15;;;;;;;19.60;9.75;;;;;;;;;;4953000;28;20580;-74
2022/01/16 10:57:41;;;;;;;25.00;10.60;;;;;;;;;;4952377;28;20341;-73
2022/01/16 11:00:15;;;;;;;22.13;9.52;;;;;;;;;;4952653;28;20365;-74
2022/01/16 11:02:43;;;;;;;25.02;9.85;;;;;;;;;;4952957;28;20445;-73
2022/01/16 11:05:20;;;;;;;22.83;8.77;;;;;;;;;;4952265;28;20334;-73
2022/01/16 11:07:46;;;;;;;21.38;9.05;;;;;;;;;;4968528;28;20377;-74
2022/01/16 11:10:39;;;;;;;22.33;9.93;;;;;;;;;;4952923;28;20398;-74
2022/01/16 11:13:16;;;;;;;24.48;10.02;;;;;;;;;;4984129;28;20171;-73
2022/01/16 11:15:43;;;;;;;26.52;10.85;;;;;;;;;;4967340;28;20352;-73
2022/01/16 11:18:09;;;;;;;24.60;9.57;;;;;;;;;;4966986;28;20528;-74
2022/01/16 11:20:36;;;;;;;23.17;10.88;;;;;;;;;;4967665;28;20453;-73
2022/01/16 11:25:39;;;;;;;24.92;9.85;;;;;;;;;;4952141;28;20487;-74
2022/01/16 11:28:07;;;;;;;25.42;10.38;;;;;;;;;;4952694;28;20341;-73
2022/01/16 11:30:36;;;;;;;26.77;10.00;;;;;;;;;;4952790;28;20049;-73
2022/01/16 11:33:01;;;;;;;29.20;11.45;;;;;;;;;;4952758;28;20384;-73
2022/01/16 11:35:28;;;;;;;25.17;10.80;;;;;;;;;;4966706;28;20383;-73
2022/01/16 11:37:54;;;;;;;23.30;8.95;;;;;;;;;;4952822;28;20441;-74
2022/01/16 11:40:44;;;;;;;23.83;10.27;;;;;;;;;;4951794;28;20506;-73
2022/01/16 11:43:18;;;;;;;23.40;10.05;;;;;;;;;;4951617;28;20384;-74
2022/01/16 11:46:24;;;;;;;24.15;9.20;;;;;;;;;;4966110;28;20434;-74
2022/01/16 11:48:58;;;;;;;27.77;10.35;;;;;;;;;;4949394;28;20022;-73
2022/01/16 11:51:35;;;;;;;17.15;9.07;;;;;;;;;;4951345;28;20457;-73
2022/01/16 11:54:01;;;;;;;22.27;10.32;;;;;;;;;;4952493;28;20434;-73
2022/01/16 11:56:41;;;;;;;25.42;10.48;;;;;;;;;;4951625;28;20414;-73
2022/01/16 11:59:26;;;;;;;25.98;10.32;;;;;;;;;;4953071;28;20425;-73
2022/01/16 12:01:53;;;;;;;23.77;10.57;;;;;;;;;;4966508;28;20464;-73
2022/01/16 12:04:31;;;;;;;21.27;10.73;;;;;;;;;;4966173;28;20554;-73
2022/01/16 12:07:22;;;;;;;26.15;10.43;;;;;;;;;;4966736;28;20369;-73
2022/01/16 12:09:49;;;;;;;23.27;10.43;;;;;;;;;;4951939;28;20095;-73
2022/01/16 12:12:15;;;;;;;21.80;10.35;;;;;;;;;;4951246;28;20453;-73
2022/01/16 12:14:46;;;;;;;22.38;10.40;;;;;;;;;;4951225;28;20334;-73
2022/01/16 12:17:44;;;;;;;19.67;9.13;;;;;;;;;;4965708;28;20171;-73
2022/01/16 12:20:17;;;;;;;22.02;8.60;;;;;;;;;;4951701;28;20445;-73
2022/01/16 12:22:46;;;;;;;19.45;8.75;;;;;;;;;;4951004;28;20573;-73
2022/01/16 12:25:22;;;;;;;20.02;8.30;;;;;;;;;;4966394;28;20369;-75
2022/01/16 12:28:09;;;;;;;18.27;7.93;;;;;;;;;;4965545;28;20424;-74
2022/01/16 12:30:59;;;;;;;21.08;8.60;;;;;;;;;;4951006;28;20369;-74
2022/01/16 12:33:46;;;;;;;18.48;8.27;;;;;;;;;;4950778;28;20445;-73
2022/01/16 12:36:32;;;;;;;20.33;8.50;;;;;;;;;;4981565;28;20357;-73
2022/01/16 12:39:10;;;;;;;18.00;9.50;;;;;;;;;;4950338;28;20137;-73
2022/01/16 12:41:41;;;;;;;25.20;9.00;;;;;;;;;;4981139;28;20464;-73
2022/01/16 12:44:17;;;;;;;21.77;8.00;;;;;;;;;;4965543;28;20034;-73
2022/01/16 12:46:48;;;;;;;25.48;9.25;;;;;;;;;;4965580;28;20523;-74
2022/01/16 12:49:19;;;;;;;24.25;9.25;;;;;;;;;;4981857;28;20033;-73
2022/01/16 12:51:55;;;;;;;21.88;8.52;;;;;;;;;;4982542;28;20056;-75
2022/01/16 12:54:25;;;;;;;21.88;9.35;;;;;;;;;;4981983;28;20374;-73
2022/01/16 12:56:55;;;;;;;23.98;9.13;;;;;;;;;;4981684;28;20552;-73
2022/01/16 12:59:23;;;;;;;29.00;9.73;;;;;;;;;;4950751;28;20421;-74
2022/01/16 13:01:51;;;;;;;19.73;8.07;;;;;;;;;;4982205;28;20473;-73
2022/01/16 13:04:26;;;;;;;21.58;8.57;;;;;;;;;;4950483;28;20030;-73
2022/01/16 13:06:52;;;;;;;21.88;9.88;;;;;;;;;;4981076;28;20575;-74
2022/01/16 13:09:17;;;;;;;21.92;8.63;;;;;;;;;;4948645;28;20449;-73
2022/01/16 13:11:48;;;;;;;22.88;9.43;;;;;;;;;;4948469;28;20034;-73
2022/01/16 13:14:19;;;;;;;19.80;8.43;;;;;;;;;;4965737;28;20369;-74
2022/01/16 13:16:45;;;;;;;20.38;8.75;;;;;;;;;;4981723;28;20457;-74
2022/01/16 13:19:19;;;;;;;19.20;8.80;;;;;;;;;;4950939;28;20022;-74
2022/01/16 13:22:03;;;;;;;20.63;7.75;;;;;;;;;;4964338;28;20353;-75
2022/01/16 13:24:36;;;;;;;15.93;7.43;;;;;;;;;;4950579;28;20346;-73
2022/01/16 13:27:26;;;;;;;16.85;7.40;;;;;;;;;;4950472;28;20532;-73
2022/01/16 13:29:55;;;;;;;16.42;7.88;;;;;;;;;;4949775;28;20042;-73
2022/01/16 13:32:28;;;;;;;18.80;7.55;;;;;;;;;;4951104;28;20341;-74
2022/01/16 13:34:55;;;;;;;17.20;7.95;;;;;;;;;;4949688;28;20333;-73
2022/01/16 13:37:37;;;;;;;18.10;7.47;;;;;;;;;;4951462;28;20445;-73
2022/01/16 13:40:08;;;;;;;19.80;7.55;;;;;;;;;;4980909;28;20429;-74
2022/01/16 13:43:02;;;;;;;20.70;7.57;;;;;;;;;;4965537;28;20029;-73
2022/01/16 13:46:02;;;;;;;14.43;6.75;;;;;;;;;;4948701;28;20441;-74
2022/01/16 13:48:28;;;;;;;19.42;7.95;;;;;;;;;;4906164;28;20480;-73
2022/01/16 13:50:55;;;;;;;17.05;7.78;;;;;;;;;;4981258;28;20535;-74
2022/01/16 13:53:22;;;;;;;21.63;8.23;;;;;;;;;;4949389;28;20346;-74
2022/01/16 13:55:54;;;;;;;22.30;8.23;;;;;;;;;;4949969;28;20550;-73
2022/01/16 13:58:23;;;;;;;19.02;8.02;;;;;;;;;;4965497;28;20405;-74
2022/01/16 14:00:48;;;;;;;13.80;6.72;;;;;;;;;;4964182;28;20344;-74
2022/01/16 14:03:25;;;;;;;17.58;7.57;;;;;;;;;;4965200;28;20394;-73
2022/01/16 14:05:55;;;;;;;21.35;7.40;;;;;;;;;;4980833;28;20372;-73
2022/01/16 14:08:39;;;;;;;20.52;7.97;;;;;;;;;;4949625;28;20330;-73
2022/01/16 14:11:16;;;;;;;19.70;7.25;;;;;;;;;;4979094;28;20053;-74
2022/01/16 14:13:56;;;;;;;17.15;7.15;;;;;;;;;;4980743;28;20441;-73
2022/01/16 14:16:32;;;;;;;13.63;6.53;;;;;;;;;;4949776;28;20363;-74
2022/01/16 14:24:09;;;;;;;17.08;7.30;;;;;;;;;;4966849;28;20048;-73
2022/01/16 14:26:49;;;;;;;17.65;7.43;;;;;;;;;;4951621;28;20436;-74
2022/01/16 14:29:15;;;;;;;;;;;;;;;;;;4985334;28;20346;-73
2022/01/16 14:31:42;;;;;;;16.48;6.30;;;;;;;;;;4984431;28;20489;-73
2022/01/16 14:34:07;;;;;;;17.67;6.97;;;;;;;;;;4954804;28;20420;-74
2022/01/16 14:36:32;;;;;;;18.23;7.63;;;;;;;;;;4951144;28;20357;-73
2022/01/16 14:38:58;;;;;;;18.25;6.80;;;;;;;;;;4953227;28;20541;-73
2022/01/16 14:41:23;;;;;;;13.88;6.15;;;;;;;;;;4953258;28;20504;-74
2022/01/16 14:43:54;;;;;;;23.13;9.45;;;;;;;;;;4968302;28;20540;-73
2022/01/16 14:46:20;;;;;;;17.15;8.15;;;;;;;;;;4952680;28;20050;-73
2022/01/16 14:48:47;;;;;;;18.88;7.80;;;;;;;;;;4984349;28;20393;-74
2022/01/16 14:51:13;;;;;;;18.85;7.88;;;;;;;;;;4967645;28;20026;-74
2022/01/16 14:53:39;;;;;;;14.85;7.00;;;;;;;;;;4983657;28;20404;-74
2022/01/16 14:56:04;;;;;;;16.63;7.85;;;;;;;;;;4954494;28;20624;-73
2022/01/16 14:58:29;;;;;;;13.40;7.18;;;;;;;;;;4953404;28;20426;-73
2022/01/16 15:00:54;;;;;;;13.30;6.85;;;;;;;;;;4967688;28;20409;-74
2022/01/16 15:03:20;;;;;;;14.98;6.78;;;;;;;;;;4952603;28;20353;-73
2022/01/16 15:05:45;;;;;;;13.95;6.47;;;;;;;;;;4953721;28;20381;-73
2022/01/16 15:08:10;;;;;;;16.95;7.38;;;;;;;;;;4953723;28;20850;-73
2022/01/16 15:10:36;;;;;;;15.30;8.05;;;;;;;;;;4952306;28;20345;-73
2022/01/16 15:13:01;;;;;;;33.20;14.13;;;;;;;;;;4967122;28;20330;-73
2022/01/16 15:15:26;;;;;;;21.38;8.73;;;;;;;;;;4952498;28;20455;-73